createdAt,value
2018-10-16T00:04:33.160Z,100197.00
2018-10-16T00:09:36.097Z,100201.00
2018-10-16T00:14:39.063Z,100206.00
2018-10-16T00:19:42.172Z,100205.00
2018-10-16T00:24:45.169Z,100199.00
2018-10-16T00:29:48.160Z,100206.00
2018-10-16T00:34:51.142Z,100201.00
2018-10-16T00:39:54.149Z,100205.00
2018-10-16T00:44:57.231Z,100207.00
2018-10-16T00:50:00.279Z,100220.00
2018-10-16T00:55:04.841Z,100223.00
2018-10-16T01:00:09.449Z,100232.00
2018-10-16T01:05:12.883Z,100223.00
2018-10-16T01:10:15.931Z,100221.00
2018-10-16T01:15:18.885Z,100228.00
2018-10-16T01:20:21.844Z,100232.00
2018-10-16T01:25:24.789Z,100231.00
2018-10-16T01:30:27.753Z,100236.00
2018-10-16T01:35:30.671Z,100235.00
2018-10-16T01:40:33.839Z,100254.00
2018-10-16T01:45:36.834Z,100239.00
2018-10-16T01:50:39.851Z,100245.00
2018-10-16T01:55:43.272Z,100247.00
2018-10-16T02:00:46.259Z,100251.00
2018-10-16T02:05:49.208Z,100256.00
2018-10-16T02:10:52.199Z,100259.00
2018-10-16T02:15:55.270Z,100259.00
2018-10-16T02:20:58.232Z,100261.00
2018-10-16T02:26:03.178Z,100266.00
2018-10-16T02:31:06.169Z,100273.00
2018-10-16T02:36:09.132Z,100286.00
2018-10-16T02:41:12.101Z,100285.00
2018-10-16T02:46:15.163Z,100281.00
2018-10-16T02:51:18.335Z,100288.00
2018-10-16T02:56:21.246Z,100294.00
2018-10-16T03:01:24.252Z,100296.00
2018-10-16T03:06:27.266Z,100303.00
2018-10-16T03:11:30.189Z,100298.00
2018-10-16T03:16:33.176Z,100302.00
2018-10-16T03:21:36.194Z,100310.00
2018-10-16T03:26:39.474Z,100316.00
2018-10-16T03:31:42.600Z,100317.00
2018-10-16T03:36:45.631Z,100302.00
2018-10-16T03:41:48.663Z,100309.00
2018-10-16T03:46:51.642Z,100313.00
2018-10-16T03:51:54.582Z,100323.00
2018-10-16T03:56:57.586Z,100320.00
2018-10-16T04:02:02.591Z,100323.00
2018-10-16T04:07:05.615Z,100319.00
2018-10-16T04:12:08.707Z,100317.00
2018-10-16T04:17:11.740Z,100326.00
2018-10-16T04:22:14.680Z,100321.00
2018-10-16T04:27:17.771Z,100325.00
2018-10-16T04:32:20.734Z,100339.00
2018-10-16T04:37:23.700Z,100341.00
2018-10-16T04:42:26.718Z,100340.00
2018-10-16T04:47:30.055Z,100344.00
2018-10-16T04:52:33.135Z,100340.00
2018-10-16T04:57:36.498Z,100341.00
2018-10-16T05:02:40.610Z,100357.00
2018-10-16T05:07:43.644Z,100346.00
2018-10-16T05:12:46.632Z,100357.00
2018-10-16T05:17:49.580Z,100352.00
2018-10-16T05:22:53.288Z,100355.00
2018-10-16T05:27:56.796Z,100361.00
2018-10-16T05:32:59.761Z,100365.00
2018-10-16T05:38:05.698Z,100366.00
2018-10-16T05:43:08.748Z,100371.00
2018-10-16T05:48:11.680Z,100364.00
2018-10-16T05:53:14.676Z,100367.00
2018-10-16T05:58:17.643Z,100363.00
2018-10-16T06:03:20.672Z,100366.00
2018-10-16T06:08:23.692Z,100386.00
2018-10-16T06:13:26.692Z,100407.00
2018-10-16T06:18:29.755Z,100413.00
2018-10-16T06:23:32.808Z,100416.00
2018-10-16T06:28:35.799Z,100432.00
2018-10-16T06:33:38.828Z,100437.00
2018-10-16T06:38:41.793Z,100444.00
2018-10-16T06:43:44.846Z,100453.00
2018-10-16T06:48:48.190Z,100451.00
2018-10-16T06:53:50.842Z,100467.00
2018-10-16T06:58:53.922Z,100467.00
2018-10-16T07:03:56.936Z,100471.00
2018-10-16T07:08:59.940Z,100474.00
2018-10-16T07:14:08.212Z,100481.00
2018-10-16T07:19:11.230Z,100474.00
2018-10-16T07:24:14.260Z,100490.00
2018-10-16T07:29:17.242Z,100514.00
2018-10-16T07:34:20.258Z,100509.00
2018-10-16T07:39:23.237Z,100513.00
2018-10-16T07:44:26.289Z,100517.00
2018-10-16T07:49:29.321Z,100512.00
2018-10-16T07:54:32.376Z,100512.00
2018-10-16T07:59:35.791Z,100512.00
2018-10-16T08:04:38.861Z,100529.00
2018-10-16T08:09:41.813Z,100533.00
2018-10-16T08:14:44.836Z,100541.00
2018-10-16T08:19:47.983Z,100538.00
2018-10-16T08:24:50.989Z,100538.00
2018-10-16T08:29:54.084Z,100543.00
2018-10-16T08:34:57.387Z,100545.00
2018-10-16T08:40:00.392Z,100551.00
2018-10-16T08:46:20.674Z,100540.00
2018-10-16T08:51:38.483Z,100542.00
2018-10-16T08:56:41.589Z,100540.00
2018-10-16T09:01:44.693Z,100544.00
2018-10-16T09:06:47.823Z,100542.00
2018-10-16T09:11:50.711Z,100546.00
2018-10-16T09:16:53.647Z,100539.00
2018-10-16T09:21:56.565Z,100543.00
2018-10-16T09:26:59.528Z,100545.00
2018-10-16T09:32:05.120Z,100541.00
2018-10-16T09:37:08.229Z,100543.00
2018-10-16T09:42:11.276Z,100535.00
2018-10-16T09:47:14.220Z,100528.00
2018-10-16T09:52:17.237Z,100536.00
2018-10-16T09:57:20.480Z,100527.00
2018-10-16T10:02:23.435Z,100516.00
2018-10-16T10:07:26.647Z,100527.00
2018-10-16T10:17:38.649Z,100538.00
2018-10-16T10:22:41.644Z,100529.00
2018-10-16T10:27:44.600Z,100528.00
2018-10-16T10:32:48.330Z,100534.00
2018-10-16T10:37:51.357Z,100525.00
2018-10-16T10:42:54.331Z,100512.00
2018-10-16T10:47:57.347Z,100513.00
2018-10-16T10:53:00.318Z,100507.00
2018-10-16T10:58:05.198Z,100508.00
2018-10-16T11:03:08.284Z,100507.00
2018-10-16T11:08:11.356Z,100501.00
2018-10-16T11:13:14.345Z,100501.00
2018-10-16T11:18:19.035Z,100497.00
2018-10-16T11:23:22.046Z,100491.00
2018-10-16T11:28:25.074Z,100494.00
2018-10-16T11:33:28.056Z,100502.00
2018-10-16T11:38:31.079Z,100503.00
2018-10-16T11:43:34.173Z,100494.00
2018-10-16T11:48:37.151Z,100498.00
2018-10-16T11:53:40.287Z,100492.00
2018-10-16T11:58:43.365Z,100494.00
2018-10-16T12:03:46.387Z,100497.00
2018-10-16T12:08:49.305Z,100487.00
2018-10-16T12:13:52.478Z,100485.00
2018-10-16T12:18:58.948Z,100479.00
2018-10-16T12:24:04.784Z,100488.00
2018-10-16T12:29:08.174Z,100473.00
2018-10-16T12:34:11.042Z,100491.00
2018-10-16T12:39:14.234Z,100474.00
2018-10-16T12:44:17.159Z,100475.00
2018-10-16T12:49:20.624Z,100480.00
2018-10-16T12:54:23.675Z,100472.00
2018-10-16T12:59:26.643Z,100469.00
2018-10-16T13:04:29.769Z,100471.00
2018-10-16T13:09:32.709Z,100469.00
2018-10-16T13:14:36.037Z,100469.00
2018-10-16T13:19:39.031Z,100476.00
2018-10-16T13:24:42.010Z,100473.00
2018-10-16T13:29:45.267Z,100482.00
2018-10-16T13:34:48.224Z,100478.00
2018-10-16T13:39:51.752Z,100479.00
2018-10-16T13:44:54.737Z,100476.00
2018-10-16T13:49:57.792Z,100481.00
2018-10-16T13:55:02.550Z,100476.00
2018-10-16T14:00:13.803Z,100476.00
2018-10-16T14:05:17.015Z,100470.00
2018-10-16T14:10:20.053Z,100473.00
2018-10-16T14:15:23.088Z,100478.00
2018-10-16T14:20:26.079Z,100476.00
2018-10-16T14:25:29.025Z,100469.00
2018-10-16T14:30:32.084Z,100476.00
2018-10-16T14:35:35.106Z,100476.00
2018-10-16T14:40:38.193Z,100471.00
2018-10-16T14:45:41.131Z,100472.00
2018-10-16T14:50:44.113Z,100477.00
2018-10-16T14:55:47.079Z,100463.00
2018-10-16T15:00:50.337Z,100470.00
2018-10-16T15:05:53.431Z,100462.00
2018-10-16T15:10:56.471Z,100462.00
2018-10-16T15:15:59.528Z,100462.00
2018-10-16T15:21:03.227Z,100456.00
2018-10-16T15:26:06.565Z,100461.00
2018-10-16T15:31:09.402Z,100458.00
2018-10-16T15:36:12.397Z,100459.00
2018-10-16T15:41:15.667Z,100454.00
2018-10-16T15:46:18.811Z,100454.00
2018-10-16T15:51:21.779Z,100457.00
2018-10-16T15:56:24.720Z,100458.00
2018-10-16T16:01:27.867Z,100454.00
2018-10-16T16:06:30.799Z,100459.00
2018-10-16T16:11:33.711Z,100462.00
2018-10-16T16:16:36.746Z,100471.00
2018-10-16T16:21:39.987Z,100458.00
2018-10-16T16:26:42.987Z,100457.00
2018-10-16T16:31:45.970Z,100468.00
2018-10-16T16:36:48.912Z,100470.00
2018-10-16T16:41:52.073Z,100457.00
2018-10-16T16:46:55.659Z,100456.00
2018-10-16T16:51:58.630Z,100460.00
2018-10-16T16:57:03.813Z,100474.00
2018-10-16T17:02:06.930Z,100463.00
2018-10-16T17:07:09.793Z,100474.00
2018-10-16T17:12:12.792Z,100477.00
2018-10-16T17:17:15.707Z,100486.00
2018-10-16T17:22:18.712Z,100491.00
2018-10-16T17:27:22.027Z,100483.00
2018-10-16T17:32:25.053Z,100483.00
2018-10-16T17:37:27.961Z,100491.00
2018-10-16T17:42:31.013Z,100491.00
2018-10-16T17:47:34.450Z,100497.00
2018-10-16T17:52:37.669Z,100501.00
2018-10-16T17:57:40.852Z,100502.00
2018-10-16T18:02:44.307Z,100502.00
2018-10-16T18:07:47.377Z,100494.00
2018-10-16T18:12:50.407Z,100515.00
2018-10-16T18:17:53.605Z,100517.00
2018-10-16T18:22:56.877Z,100520.00
2018-10-16T18:28:00.081Z,100526.00
2018-10-16T18:33:04.823Z,100525.00
2018-10-16T18:38:08.044Z,100524.00
2018-10-16T18:43:11.082Z,100512.00
2018-10-16T18:48:14.209Z,100516.00
2018-10-16T18:53:17.184Z,100525.00
2018-10-16T18:58:20.171Z,100523.00
2018-10-16T19:03:23.193Z,100521.00
2018-10-16T19:08:26.245Z,100512.00
2018-10-16T19:13:29.541Z,100519.00
2018-10-16T19:18:32.586Z,100526.00
2018-10-16T19:23:35.600Z,100533.00
2018-10-16T19:28:39.099Z,100526.00
2018-10-16T19:33:42.559Z,100531.00
2018-10-16T19:38:45.966Z,100513.00
2018-10-16T19:43:49.391Z,100523.00
2018-10-16T19:48:52.505Z,100524.00
2018-10-16T19:53:55.595Z,100531.00
2018-10-16T19:58:58.633Z,100530.00
2018-10-16T20:04:03.045Z,100535.00
2018-10-16T20:09:09.014Z,100532.00
2018-10-16T20:14:12.051Z,100540.00
2018-10-16T20:19:15.033Z,100547.00
2018-10-16T20:24:18.069Z,100548.00
2018-10-16T20:29:21.125Z,100554.00
2018-10-16T20:34:24.153Z,100536.00
2018-10-16T20:39:27.231Z,100543.00
2018-10-16T20:44:30.337Z,100537.00
2018-10-16T20:49:34.482Z,100537.00
2018-10-16T20:54:37.504Z,100541.00
2018-10-16T20:59:42.052Z,100536.00
2018-10-16T21:04:45.073Z,100536.00
2018-10-16T21:09:48.365Z,100535.00
2018-10-16T21:14:51.383Z,100546.00
2018-10-16T21:19:54.368Z,100555.00
2018-10-16T21:24:57.396Z,100550.00
2018-10-16T21:30:01.609Z,100566.00
2018-10-16T21:35:05.281Z,100558.00
2018-10-16T21:40:08.610Z,100549.00
2018-10-16T21:45:11.713Z,100552.00
2018-10-16T21:50:14.808Z,100544.00
2018-10-16T21:55:17.858Z,100538.00
2018-10-16T22:00:26.670Z,100538.00
2018-10-16T22:05:29.686Z,100530.00
2018-10-16T22:10:32.584Z,100531.00
2018-10-16T22:15:35.487Z,100529.00
2018-10-16T22:20:38.501Z,100530.00
2018-10-16T22:25:41.481Z,100534.00
2018-10-16T22:30:44.486Z,100529.00
2018-10-16T22:35:47.458Z,100532.00
2018-10-16T22:40:50.497Z,100529.00
2018-10-16T22:45:53.457Z,100524.00
2018-10-16T22:50:56.450Z,100518.00
2018-10-16T22:55:59.444Z,100520.00
2018-10-16T23:01:02.772Z,100514.00
2018-10-16T23:06:06.096Z,100518.00
2018-10-16T23:11:09.038Z,100515.00
2018-10-16T23:16:12.796Z,100511.00
2018-10-16T23:21:15.785Z,100504.00
2018-10-16T23:26:18.763Z,100499.00
2018-10-16T23:31:21.902Z,100492.00
2018-10-16T23:36:24.892Z,100489.00
2018-10-16T23:41:27.841Z,100492.00
2018-10-16T23:46:31.132Z,100501.00
2018-10-16T23:51:34.471Z,100499.00
2018-10-16T23:56:37.444Z,100505.00
